Time;durP1;ratioP1;P1;durP2;ratioP2;P2;SDS_P1;SDS_P2;PMS_P1;PMS_P2;Temp;Humidity;BMP_temperature;BMP_pressure;BME280_temperature;BME280_humidity;BME280_pressure;Samples;Min_cycle;Max_cycle;Signal;HPM_P1;HPM_P2
2022/12/21 07:15:28;;;;;;;6.53;2.58;;;17.20;64.80;;;;;;10538724;27;1395747;-28
2022/12/21 07:20:29;;;;;;;3.47;2.28;;;17.50;63.90;;;;;;10571538;28;20524;-25
2022/12/21 07:25:31;;;;;;;4.60;2.03;;;17.60;63.50;;;;;;10583422;28;20048;-26
2022/12/21 07:30:35;;;;;;;2.77;1.47;;;16.90;66.20;;;;;;10581365;28;20104;-26
2022/12/21 07:35:36;;;;;;;4.25;1.92;;;17.60;63.80;;;;;;10583181;28;20487;-27
2022/12/21 07:40:38;;;;;;;4.20;2.10;;;17.70;63.00;;;;;;10582963;28;20051;-27
2022/12/21 07:45:42;;;;;;;2.78;1.60;;;17.50;63.60;;;;;;10580235;28;20066;-27
2022/12/21 07:50:47;;;;;;;4.40;2.03;;;17.60;63.40;;;;;;10584289;28;20097;-26
2022/12/21 07:55:48;;;;;;;4.95;1.98;;;17.50;63.70;;;;;;10580212;28;20063;-26
2022/12/21 08:00:52;;;;;;;4.00;1.75;;;17.60;63.40;;;;;;10582774;28;20044;-27
2022/12/21 08:05:54;;;;;;;5.22;2.00;;;17.60;63.10;;;;;;10570137;28;20146;-27
2022/12/21 08:10:56;;;;;;;;;;;17.60;63.00;;;;;;10576062;28;20106;-25
2022/12/21 08:16:04;;;;;;;4.97;1.95;;;17.60;62.80;;;;;;10579455;28;19930;-27
2022/12/21 08:21:06;;;;;;;5.80;2.42;;;17.50;63.20;;;;;;10576889;28;20083;-29
2022/12/21 08:26:10;;;;;;;8.50;2.50;;;17.60;63.00;;;;;;10527486;28;20062;-29
2022/12/21 08:31:14;;;;;;;6.07;2.13;;;17.50;63.20;;;;;;10546502;28;20599;-28
2022/12/21 08:36:18;;;;;;;13.85;3.55;;;17.50;62.70;;;;;;10543102;28;20085;-27
2022/12/21 08:41:20;;;;;;;4.18;2.83;;;16.30;67.90;;;;;;10546624;28;20069;-26
2022/12/21 08:46:23;;;;;;;12.63;3.87;;;16.00;68.80;;;;;;10541310;28;20481;-25
2022/12/21 08:51:25;;;;;;;9.38;2.90;;;15.50;67.60;;;;;;10542226;28;20090;-26
2022/12/21 08:56:27;;;;;;;10.90;3.53;;;15.20;69.60;;;;;;10536718;28;20043;-26
2022/12/21 09:01:31;;;;;;;9.75;3.60;;;13.20;85.00;;;;;;10538097;28;20050;-26
2022/12/21 09:06:33;;;;;;;6.65;2.28;;;14.60;81.00;;;;;;10541046;28;20267;-24
2022/12/21 09:11:35;;;;;;;9.65;2.28;;;14.50;82.10;;;;;;10548239;28;20143;-31
2022/12/21 09:16:38;;;;;;;9.13;3.47;;;15.10;78.30;;;;;;10550411;28;20075;-26
2022/12/21 09:21:39;;;;;;;12.45;4.75;;;13.90;77.60;;;;;;10543486;28;20052;-26
2022/12/21 09:26:42;;;;;;;10.75;3.75;;;13.00;87.60;;;;;;10550388;28;20075;-26
2022/12/21 09:31:46;;;;;;;7.53;2.83;;;11.80;92.80;;;;;;10545726;28;20048;-26
2022/12/21 09:36:48;;;;;;;12.48;3.58;;;13.10;93.80;;;;;;10546744;28;20056;-25
2022/12/21 09:42:00;;;;;;;9.30;4.63;;;14.10;90.60;;;;;;10546745;28;20052;-23
2022/12/21 09:47:09;;;;;;;8.88;2.78;;;14.00;91.10;;;;;;10544489;28;20529;-22
2022/12/21 09:52:18;;;;;;;9.25;2.42;;;13.50;95.00;;;;;;10545669;28;20129;-23
2022/12/21 09:57:20;;;;;;;5.90;2.40;;;14.30;90.10;;;;;;10545950;28;20058;-27
2022/12/21 10:02:36;;;;;;;15.33;7.47;;;13.50;92.60;;;;;;10543609;28;20417;-24
2022/12/21 10:07:56;;;;;;;9.52;2.80;;;12.30;95.40;;;;;;10547228;28;20039;-26
2022/12/21 10:13:04;;;;;;;10.35;2.60;;;15.10;79.70;;;;;;10543966;28;20141;-24
2022/12/21 10:18:17;;;;;;;8.02;2.50;;;15.60;78.40;;;;;;10544042;28;20043;-22
2022/12/21 10:23:24;;;;;;;13.20;7.03;;;15.30;76.30;;;;;;10543564;28;20052;-24
2022/12/21 10:28:43;;;;;;;15.25;6.80;;;13.50;91.10;;;;;;10546193;28;20066;-26
2022/12/21 10:33:49;;;;;;;18.88;8.35;;;13.00;93.90;;;;;;10547001;28;20101;-26
2022/12/21 10:38:51;;;;;;;11.23;3.58;;;13.60;91.00;;;;;;10519920;28;22673;-26
2022/12/21 10:43:55;;;;;;;5.47;2.45;;;14.30;89.10;;;;;;10531755;28;20071;-25
2022/12/21 10:49:05;;;;;;;19.92;7.45;;;14.50;91.00;;;;;;10542206;28;20438;-26
2022/12/21 10:54:08;;;;;;;11.15;5.28;;;13.40;91.50;;;;;;10545255;28;21594;-23
2022/12/21 10:59:19;;;;;;;11.98;6.47;;;13.40;91.20;;;;;;10541932;28;20058;-27
2022/12/21 11:04:31;;;;;;;20.08;8.23;;;13.00;94.40;;;;;;10533615;28;20035;-26
2022/12/21 11:09:39;;;;;;;18.55;8.73;;;12.80;94.70;;;;;;10535264;28;20121;-24
2022/12/21 11:14:41;;;;;;;13.90;5.43;;;12.10;97.00;;;;;;10540630;28;20055;-27
2022/12/21 11:19:44;;;;;;;20.07;6.83;;;12.40;99.70;;;;;;10543533;28;20122;-24
2022/12/21 11:24:48;;;;;;;9.25;3.85;;;13.20;92.90;;;;;;10539089;28;20489;-24
2022/12/21 11:29:53;;;;;;;7.03;3.75;;;14.60;90.60;;;;;;10540923;28;20084;-24
2022/12/21 11:34:58;;;;;;;19.05;7.45;;;14.60;87.40;;;;;;10533746;28;20487;-24
2022/12/21 11:40:14;;;;;;;11.23;6.70;;;15.00;77.10;;;;;;10540450;28;20581;-24
2022/12/21 11:45:21;;;;;;;11.57;4.35;;;12.60;94.00;;;;;;10536101;28;20040;-25
2022/12/21 11:50:36;;;;;;;10.75;5.72;;;14.50;87.30;;;;;;10540815;28;20040;-26
2022/12/21 11:55:56;;;;;;;13.13;4.07;;;14.60;88.50;;;;;;10541477;28;20640;-25
2022/12/21 12:01:05;;;;;;;18.30;8.80;;;12.90;91.30;;;;;;10546812;28;20484;-27
2022/12/21 12:06:39;;;;;;;5.35;3.35;;;12.90;91.50;;;;;;10545234;28;20171;-25
2022/12/21 12:11:52;;;;;;;10.32;6.05;;;14.80;83.10;;;;;;10527362;28;20138;-27
2022/12/21 12:17:09;;;;;;;11.00;3.35;;;15.00;83.80;;;;;;10545673;28;20079;-25
2022/12/21 12:22:38;;;;;;;8.35;2.85;;;15.90;77.60;;;;;;10543707;28;20537;-27
2022/12/21 12:27:55;;;;;;;5.75;2.63;;;15.90;75.00;;;;;;10547549;28;20076;-26
2022/12/21 12:33:09;;;;;;;20.05;6.78;;;15.00;86.00;;;;;;10543873;28;20048;-26
2022/12/21 12:38:20;;;;;;;10.68;4.28;;;15.20;71.10;;;;;;10542025;28;20075;-26
2022/12/21 12:43:32;;;;;;;17.48;8.27;;;15.90;72.00;;;;;;10545604;28;20127;-23
2022/12/21 12:48:44;;;;;;;35.58;18.70;;;14.20;81.70;;;;;;10543892;28;20556;-24
2022/12/21 12:53:57;;;;;;;18.23;10.60;;;12.00;94.40;;;;;;10545620;28;20082;-27
2022/12/21 12:59:06;;;;;;;10.18;5.93;;;12.60;94.60;;;;;;10544437;28;20040;-29
2022/12/21 13:04:21;;;;;;;13.10;7.28;;;13.80;91.80;;;;;;10531102;28;20039;-27
2022/12/21 13:09:33;;;;;;;4.85;2.63;;;15.60;79.50;;;;;;10542171;28;20154;-27
2022/12/21 13:14:39;;;;;;;2.73;2.27;;;16.40;73.00;;;;;;10543121;28;20051;-28
2022/12/21 13:19:42;;;;;;;4.50;2.33;;;17.00;68.70;;;;;;10538288;28;20449;-25
2022/12/21 13:24:49;;;;;;;7.65;4.18;;;16.70;71.00;;;;;;10533121;28;20468;-25
2022/12/21 13:30:01;;;;;;;12.73;8.18;;;16.20;72.70;;;;;;10548077;28;20075;-24
2022/12/21 13:35:13;;;;;;;12.70;7.97;;;15.00;77.30;;;;;;10544635;28;20043;-25
2022/12/21 13:40:21;;;;;;;9.07;5.77;;;14.70;85.30;;;;;;10539877;28;20731;-29
2022/12/21 13:45:40;;;;;;;5.35;4.57;;;14.30;89.30;;;;;;10541744;28;20131;-26
2022/12/21 13:50:52;;;;;;;21.38;10.90;;;13.80;92.00;;;;;;10536011;28;20750;-25
2022/12/21 13:56:01;;;;;;;6.07;4.00;;;13.40;84.30;;;;;;10541689;28;20802;-26
2022/12/21 14:01:12;;;;;;;6.15;3.55;;;15.20;82.80;;;;;;10547380;28;20092;-26
2022/12/21 14:06:48;;;;;;;11.63;6.85;;;15.70;77.70;;;;;;10544048;28;20055;-23
2022/12/21 14:12:05;;;;;;;6.80;3.60;;;15.50;79.40;;;;;;10545517;28;20044;-27
2022/12/21 14:17:17;;;;;;;2.88;2.45;;;16.30;74.30;;;;;;10542162;28;20071;-26
2022/12/21 14:22:35;;;;;;;7.10;3.03;;;16.10;74.30;;;;;;10541350;28;20059;-25
2022/12/21 14:27:38;;;;;;;7.20;2.40;;;16.30;72.90;;;;;;10536527;28;20537;-28
2022/12/21 14:32:41;;;;;;;5.93;2.65;;;16.60;71.40;;;;;;10528711;28;20115;-28
2022/12/21 14:38:09;;;;;;;7.90;2.45;;;16.70;71.30;;;;;;10536399;28;20134;-26
2022/12/21 14:43:12;;;;;;;7.03;3.35;;;16.80;70.70;;;;;;10537219;28;20124;-25
2022/12/21 14:48:53;;;;;;;4.53;2.38;;;16.40;73.20;;;;;;10538628;28;20126;-25
2022/12/21 14:54:09;;;;;;;2.63;2.15;;;17.00;70.40;;;;;;10541906;28;20040;-25
2022/12/21 14:59:14;;;;;;;5.47;3.30;;;17.10;70.90;;;;;;10532500;28;20632;-26
2022/12/21 15:04:24;;;;;;;5.47;2.47;;;16.90;71.50;;;;;;10536707;28;20067;-25
2022/12/21 15:09:29;;;;;;;5.13;2.35;;;17.20;69.50;;;;;;10536194;28;20105;-26
2022/12/21 15:14:39;;;;;;;6.03;2.28;;;17.10;70.10;;;;;;10538019;28;20823;-27
2022/12/21 15:19:57;;;;;;;9.57;3.08;;;17.30;66.50;;;;;;10538328;28;20524;-26
2022/12/21 15:25:02;;;;;;;5.28;2.97;;;17.10;69.60;;;;;;10536974;28;20441;-24
2022/12/21 15:30:18;;;;;;;2.60;1.55;;;16.90;69.90;;;;;;10536529;28;20040;-24
2022/12/21 15:35:27;;;;;;;7.68;2.17;;;17.00;70.60;;;;;;10537252;28;20136;-26
2022/12/21 15:40:36;;;;;;;3.47;1.92;;;17.20;69.30;;;;;;10546409;28;20409;-27
2022/12/21 15:45:46;;;;;;;3.22;1.50;;;16.80;71.90;;;;;;10541718;28;20078;-28
2022/12/21 15:50:49;;;;;;;9.23;4.13;;;17.60;67.60;;;;;;10539793;28;20067;-25
2022/12/21 15:55:53;;;;;;;2.40;1.55;;;16.80;66.10;;;;;;10540283;28;20044;-27
2022/12/21 16:01:01;;;;;;;4.57;2.50;;;17.10;69.00;;;;;;10538481;28;20066;-25
2022/12/21 16:06:11;;;;;;;3.80;1.63;;;17.50;68.20;;;;;;10543510;28;20074;-26
2022/12/21 16:11:27;;;;;;;5.47;1.60;;;17.90;66.40;;;;;;10541770;28;20142;-24
2022/12/21 16:16:34;;;;;;;2.33;1.80;;;17.70;67.80;;;;;;10543535;28;20548;-26
2022/12/21 16:21:36;;;;;;;2.03;1.30;;;17.50;66.20;;;;;;10539058;28;20077;-26
2022/12/21 16:26:38;;;;;;;2.13;1.30;;;17.40;70.00;;;;;;10535818;28;20495;-29
2022/12/21 16:31:45;;;;;;;7.65;1.95;;;17.20;70.20;;;;;;10538854;28;20036;-26
2022/12/21 16:36:47;;;;;;;4.50;1.30;;;17.60;68.10;;;;;;10540977;28;20049;-24
2022/12/21 16:41:50;;;;;;;;;;;17.40;69.10;;;;;;10537618;28;20495;-27
2022/12/21 16:47:15;;;;;;;2.70;1.23;;;17.40;68.00;;;;;;10539618;28;19954;-25
2022/12/21 16:52:40;;;;;;;2.80;1.83;;;17.70;68.50;;;;;;10541986;28;20510;-24
2022/12/21 16:57:42;;;;;;;5.63;1.30;;;17.80;67.40;;;;;;10539455;28;20056;-27
2022/12/21 17:02:50;;;;;;;3.42;1.08;;;17.70;67.90;;;;;;10544719;28;20043;-25
2022/12/21 17:07:52;;;;;;;5.78;2.00;;;18.00;66.30;;;;;;10542436;28;20040;-24
2022/12/21 17:13:04;;;;;;;4.25;1.67;;;17.50;68.00;;;;;;10546664;28;20580;-27
2022/12/21 17:18:45;;;;;;;7.70;4.43;;;17.00;71.90;;;;;;10536744;28;20050;-26
2022/12/21 17:23:53;;;;;;;8.85;5.05;;;16.70;70.00;;;;;;10541033;28;20149;-25
2022/12/21 17:28:55;;;;;;;6.40;3.65;;;16.60;69.00;;;;;;10538838;28;20422;-26
2022/12/21 17:33:59;;;;;;;8.80;3.40;;;14.60;82.20;;;;;;10540248;28;20524;-26
2022/12/21 17:39:12;;;;;;;5.43;2.33;;;13.40;93.60;;;;;;10539552;28;20726;-25
2022/12/21 17:44:14;;;;;;;;;;;15.90;83.70;;;;;;10539195;28;20456;-25
2022/12/21 17:49:17;;;;;;;5.37;1.47;;;17.00;74.10;;;;;;10542132;28;19926;-27
2022/12/21 17:54:21;;;;;;;3.90;2.20;;;17.40;72.30;;;;;;10539869;28;20043;-25
2022/12/21 17:59:23;;;;;;;2.88;1.17;;;17.80;69.40;;;;;;10542019;28;20040;-26
2022/12/21 18:04:26;;;;;;;2.30;1.10;;;18.10;67.30;;;;;;10538447;28;20040;-26
2022/12/21 18:09:28;;;;;;;11.77;1.98;;;18.50;66.10;;;;;;10539269;28;20089;-25
2022/12/21 18:14:30;;;;;;;4.75;1.83;;;18.20;67.40;;;;;;10531364;28;20051;-27
2022/12/21 18:19:33;;;;;;;4.80;1.50;;;18.50;65.60;;;;;;10533135;28;20088;-27
2022/12/21 18:24:35;;;;;;;1.88;1.00;;;18.20;67.30;;;;;;10538556;28;20519;-26
2022/12/21 18:29:38;;;;;;;4.75;1.60;;;18.30;67.70;;;;;;10541316;28;20373;-26
2022/12/21 18:34:41;;;;;;;;;;;17.50;73.10;;;;;;10537383;28;20051;-27
2022/12/21 18:39:43;;;;;;;4.22;1.58;;;18.20;66.80;;;;;;10534615;28;19996;-27
2022/12/21 18:44:45;;;;;;;12.70;4.97;;;18.20;68.40;;;;;;10534897;28;20045;-26
2022/12/21 18:49:48;;;;;;;12.00;4.38;;;18.10;64.00;;;;;;10542451;28;20056;-27
2022/12/21 18:54:50;;;;;;;9.10;6.53;;;16.70;78.00;;;;;;10537341;28;20044;-26
2022/12/21 18:59:52;;;;;;;11.95;2.35;;;17.20;67.90;;;;;;10535421;28;20055;-26
2022/12/21 19:04:56;;;;;;;12.07;7.37;;;16.30;79.20;;;;;;10534963;28;20895;-29
2022/12/21 19:09:58;;;;;;;7.70;2.70;;;15.40;81.60;;;;;;10532985;28;20385;-28
2022/12/21 19:15:01;;;;;;;4.23;2.27;;;17.00;78.90;;;;;;10532503;28;20056;-25
2022/12/21 19:20:08;;;;;;;14.40;7.40;;;17.70;71.10;;;;;;10530125;28;20478;-28
2022/12/21 19:25:16;;;;;;;6.30;3.85;;;17.50;71.10;;;;;;10486116;28;20418;-26
2022/12/21 19:30:21;;;;;;;13.07;7.20;;;17.10;73.00;;;;;;10489687;28;20052;-27
2022/12/21 19:35:27;;;;;;;10.23;6.22;;;16.70;76.50;;;;;;10491314;28;20139;-27
2022/12/21 19:40:32;;;;;;;3.97;2.85;;;14.90;83.70;;;;;;10491047;28;20040;-29
2022/12/21 19:45:34;;;;;;;8.30;4.50;;;16.90;81.00;;;;;;10490009;28;20049;-29
2022/12/21 19:50:37;;;;;;;11.60;4.95;;;16.50;82.80;;;;;;10487366;28;20151;-25
2022/12/21 19:55:39;;;;;;;4.78;2.38;;;15.50;90.00;;;;;;10487577;28;20092;-26
2022/12/21 20:00:41;;;;;;;8.60;5.50;;;16.60;82.20;;;;;;10483739;28;20075;-27
2022/12/21 20:05:44;;;;;;;7.73;5.73;;;14.90;93.90;;;;;;10487397;28;20569;-24
2022/12/21 20:10:49;;;;;;;6.97;4.32;;;15.50;91.40;;;;;;10486460;28;20056;-25
2022/12/21 20:15:51;;;;;;;7.13;4.15;;;15.00;92.40;;;;;;10485227;28;20076;-24
2022/12/21 20:20:54;;;;;;;16.35;9.80;;;14.50;93.10;;;;;;10491507;28;20138;-29
2022/12/21 20:25:56;;;;;;;11.50;6.65;;;14.30;93.50;;;;;;10490207;28;20056;-28
2022/12/21 20:30:58;;;;;;;15.47;10.27;;;14.40;93.80;;;;;;10493132;28;20070;-26
2022/12/21 20:36:02;;;;;;;11.80;7.90;;;13.10;97.50;;;;;;10494369;28;20060;-26
2022/12/21 20:41:05;;;;;;;7.40;5.15;;;13.90;94.80;;;;;;10493962;28;20057;-28
2022/12/21 20:46:17;;;;;;;8.73;4.72;;;14.90;91.50;;;;;;10494145;28;20051;-27
2022/12/21 20:51:21;;;;;;;4.80;2.75;;;14.80;92.50;;;;;;10501131;28;20141;-26
2022/12/21 20:56:27;;;;;;;11.70;5.32;;;15.90;86.00;;;;;;10499109;28;20056;-22
2022/12/21 21:01:32;;;;;;;8.35;3.72;;;14.60;92.00;;;;;;10497571;28;20110;-27
2022/12/21 21:06:35;;;;;;;3.88;1.77;;;16.00;85.60;;;;;;10501160;28;20055;-25
2022/12/21 21:11:53;;;;;;;18.80;11.13;;;16.50;81.10;;;;;;10499283;28;20056;-25
2022/12/21 21:16:56;;;;;;;10.35;4.97;;;16.30;80.50;;;;;;10496578;28;20397;-26
2022/12/21 21:27:20;;;;;;;12.75;8.07;;;14.90;89.30;;;;;;10496177;28;20044;-26
2022/12/21 21:32:22;;;;;;;7.68;5.63;;;14.30;91.70;;;;;;10497025;28;20080;-26
2022/12/21 21:37:25;;;;;;;6.30;3.17;;;13.50;95.80;;;;;;10495106;28;20062;-24
2022/12/21 21:42:27;;;;;;;12.48;10.10;;;14.30;94.60;;;;;;10494535;28;20568;-24
2022/12/21 21:47:34;;;;;;;8.07;5.83;;;14.90;89.30;;;;;;10495008;28;20053;-26
2022/12/21 21:52:37;;;;;;;15.50;9.05;;;14.50;92.10;;;;;;10495412;28;20048;-25
2022/12/21 21:57:39;;;;;;;17.02;12.25;;;14.80;91.30;;;;;;10494674;28;20110;-25
2022/12/21 22:02:46;;;;;;;19.00;11.17;;;14.50;90.40;;;;;;10492235;28;20655;-27
2022/12/21 22:07:49;;;;;;;9.60;5.20;;;13.50;94.40;;;;;;10492022;28;20211;-26
2022/12/21 22:12:51;;;;;;;19.02;12.68;;;16.00;84.50;;;;;;10489454;28;20045;-25
2022/12/21 22:17:53;;;;;;;14.47;7.90;;;13.70;94.30;;;;;;10493501;28;20520;-24
2022/12/21 22:33:40;;;;;;;21.98;14.73;;;11.90;99.60;;;;;;10496439;28;20074;-26
2022/12/21 22:44:02;;;;;;;16.73;9.13;;;12.20;99.50;;;;;;10484754;28;20044;-24
2022/12/21 22:49:04;;;;;;;20.05;12.60;;;14.00;94.50;;;;;;10483903;28;20160;-26
2022/12/21 22:54:11;;;;;;;19.27;14.30;;;13.50;95.60;;;;;;10495961;28;20048;-25
2022/12/21 22:59:15;;;;;;;20.48;14.13;;;13.20;96.20;;;;;;10494430;28;20060;-25
2022/12/21 23:04:18;;;;;;;22.80;12.95;;;12.90;96.90;;;;;;10493428;28;20146;-24
2022/12/21 23:09:21;;;;;;;5.78;3.03;;;13.40;96.40;;;;;;10491566;28;20584;-25
2022/12/21 23:19:43;;;;;;;23.65;13.30;;;15.10;88.90;;;;;;10491329;28;20041;-25
2022/12/21 23:30:09;;;;;;;6.75;2.75;;;14.60;91.80;;;;;;10489561;28;20044;-25
2022/12/21 23:45:52;;;;;;;15.90;10.23;;;13.50;95.10;;;;;;10486573;28;20057;-26
